Time;durP1;ratioP1;P1;durP2;ratioP2;P2;SDS_P1;SDS_P2;PMS_P1;PMS_P2;Temp;Humidity;BMP_temperature;BMP_pressure;BME280_temperature;BME280_humidity;BME280_pressure;Samples;Min_cycle;Max_cycle;Signal;HPM_P1;HPM_P2
2021/10/07 00:00:08;;;;;;;23.45;15.85;;;14.60;99.90;;;;;;5088085;28;20621;-77
2021/10/07 00:02:35;;;;;;;30.48;18.95;;;14.60;99.90;;;;;;5089455;28;20198;-77
2021/10/07 00:05:04;;;;;;;28.10;15.50;;;14.60;99.90;;;;;;5092516;28;20200;-77
2021/10/07 00:07:31;;;;;;;28.75;17.35;;;14.70;99.90;;;;;;5087828;28;20228;-77
2021/10/07 00:09:58;;;;;;;27.65;17.80;;;14.70;99.90;;;;;;5088168;28;20202;-76
2021/10/07 00:12:26;;;;;;;29.20;17.20;;;14.80;99.90;;;;;;5087500;28;20209;-77
2021/10/07 00:14:53;;;;;;;34.70;17.20;;;14.70;99.90;;;;;;5088017;28;20262;-77
2021/10/07 00:17:20;;;;;;;29.75;17.85;;;14.70;99.90;;;;;;5087749;28;20211;-77
2021/10/07 00:19:47;;;;;;;25.20;16.63;;;14.70;99.90;;;;;;5088128;28;20206;-76
2021/10/07 00:22:14;;;;;;;28.33;21.38;;;14.70;99.90;;;;;;5088064;28;20198;-76
2021/10/07 00:24:41;;;;;;;30.65;19.15;;;14.70;99.90;;;;;;5087671;28;20279;-77
2021/10/07 00:27:08;;;;;;;29.25;20.33;;;14.70;99.90;;;;;;5087874;28;20248;-77
2021/10/07 00:29:42;;;;;;;28.55;19.70;;;14.70;99.90;;;;;;5087763;28;20193;-77
2021/10/07 00:32:13;;;;;;;26.10;18.23;;;14.70;99.90;;;;;;5087584;28;20226;-77
2021/10/07 00:39:02;;;;;;;29.58;18.90;;;14.70;99.90;;;;;;5065193;28;20609;-77
2021/10/07 00:40:15;;;;;;;31.80;20.13;;;14.70;99.90;;;;;;5098782;28;20212;-77
2021/10/07 00:42:42;;;;;;;29.70;17.10;;;14.80;99.90;;;;;;5087524;28;20225;-77
2021/10/07 00:45:13;;;;;;;34.92;26.45;;;14.80;99.90;;;;;;5087857;28;20207;-77
2021/10/07 00:47:40;;;;;;;29.48;18.27;;;14.70;99.90;;;;;;5091409;28;20264;-77
2021/10/07 00:50:08;;;;;;;31.30;24.90;;;14.70;99.90;;;;;;5087299;28;20235;-77
2021/10/07 00:52:35;;;;;;;25.75;19.77;;;14.70;99.90;;;;;;5090592;28;20202;-77
2021/10/07 00:55:02;;;;;;;23.83;19.50;;;14.70;99.90;;;;;;5093111;28;20237;-77
2021/10/07 00:57:29;;;;;;;31.77;18.85;;;14.80;99.90;;;;;;5093344;28;20203;-76
2021/10/07 00:59:56;;;;;;;29.77;19.42;;;14.70;99.90;;;;;;5087258;28;20233;-77
2021/10/07 01:02:25;;;;;;;30.38;17.65;;;14.70;99.90;;;;;;5093576;28;20200;-77
2021/10/07 01:04:53;;;;;;;31.15;17.13;;;14.80;99.90;;;;;;5086739;28;20252;-77
2021/10/07 01:07:22;;;;;;;31.55;17.13;;;14.80;99.90;;;;;;5090825;28;20206;-77
2021/10/07 01:09:49;;;;;;;24.30;16.05;;;14.80;99.90;;;;;;5090511;28;20236;-77
2021/10/07 01:12:16;;;;;;;32.47;17.10;;;14.70;99.90;;;;;;5087378;28;20206;-77
2021/10/07 01:14:46;;;;;;;34.17;18.25;;;14.70;99.90;;;;;;5086799;28;20197;-76
2021/10/07 01:17:15;;;;;;;24.58;19.40;;;14.80;99.90;;;;;;5086469;28;20233;-77
2021/10/07 01:19:46;;;;;;;26.30;22.10;;;14.80;99.90;;;;;;5087520;28;20262;-77
2021/10/07 01:22:13;;;;;;;33.30;22.42;;;14.80;99.90;;;;;;5087457;28;20623;-77
2021/10/07 01:24:41;;;;;;;38.80;23.33;;;14.80;99.90;;;;;;5092579;28;20266;-77
2021/10/07 01:27:10;;;;;;;40.83;36.35;;;14.70;99.90;;;;;;5086449;28;20206;-77
2021/10/07 01:29:37;;;;;;;32.08;21.58;;;14.70;99.90;;;;;;5086811;28;20672;-77
2021/10/07 01:32:07;;;;;;;33.95;23.60;;;14.70;99.90;;;;;;5095090;28;22139;-77
2021/10/07 01:34:34;;;;;;;41.75;31.35;;;14.70;99.90;;;;;;5091968;28;20202;-77
2021/10/07 01:37:03;;;;;;;28.67;24.25;;;14.70;99.90;;;;;;5092271;28;20246;-77
2021/10/07 01:39:31;;;;;;;37.10;30.02;;;14.60;99.90;;;;;;5090871;28;20236;-77
2021/10/07 01:41:58;;;;;;;31.58;17.50;;;14.60;99.90;;;;;;5088455;28;20274;-77
2021/10/07 01:44:26;;;;;;;28.75;16.90;;;14.50;99.90;;;;;;5088026;28;20204;-77
2021/10/07 01:46:53;;;;;;;106.57;99.97;;;14.50;99.90;;;;;;5091506;28;20263;-77
2021/10/07 01:49:21;;;;;;;59.08;53.97;;;14.50;99.90;;;;;;5086358;28;20230;-76
2021/10/07 01:51:48;;;;;;;58.45;53.92;;;14.50;99.90;;;;;;5090973;28;20204;-77
2021/10/07 01:54:17;;;;;;;89.88;83.55;;;14.50;99.90;;;;;;5090057;28;20205;-77
2021/10/07 01:56:44;;;;;;;101.53;94.32;;;14.50;99.90;;;;;;5091358;28;20236;-77
2021/10/07 01:59:11;;;;;;;91.97;85.13;;;14.50;99.90;;;;;;5092002;28;20206;-77
2021/10/07 02:01:38;;;;;;;86.10;79.75;;;14.50;99.90;;;;;;5088924;28;20210;-77
2021/10/07 02:04:06;;;;;;;89.50;83.55;;;14.50;99.90;;;;;;5091722;28;20599;-77
2021/10/07 02:06:36;;;;;;;75.80;70.15;;;14.50;99.90;;;;;;5086224;28;20207;-77
2021/10/07 02:09:04;;;;;;;40.10;32.47;;;14.50;99.90;;;;;;5068568;28;20233;-77
2021/10/07 02:11:33;;;;;;;30.52;19.05;;;14.50;99.90;;;;;;5086069;28;20199;-77
2021/10/07 02:14:01;;;;;;;23.52;15.48;;;14.50;99.90;;;;;;5086092;28;20233;-77
2021/10/07 02:16:29;;;;;;;29.67;15.63;;;14.40;99.90;;;;;;5084923;28;20236;-77
2021/10/07 02:18:56;;;;;;;27.48;15.18;;;14.50;99.90;;;;;;5085975;28;20293;-77
2021/10/07 02:21:23;;;;;;;31.35;15.00;;;14.40;99.90;;;;;;5085473;28;20251;-77
2021/10/07 02:23:50;;;;;;;30.95;15.02;;;14.40;99.90;;;;;;5085666;28;20243;-76
2021/10/07 02:26:18;;;;;;;23.20;14.48;;;14.30;99.90;;;;;;5085753;28;20202;-77
2021/10/07 02:28:47;;;;;;;23.90;13.95;;;14.20;99.90;;;;;;5092219;28;20715;-77
2021/10/07 02:31:14;;;;;;;24.45;15.68;;;14.20;99.90;;;;;;5098823;28;20204;-77
2021/10/07 02:33:41;;;;;;;23.15;13.85;;;14.20;99.90;;;;;;5085640;28;20262;-77
2021/10/07 02:36:09;;;;;;;23.13;13.13;;;14.10;99.90;;;;;;5086545;28;20197;-77
2021/10/07 02:38:36;;;;;;;26.73;14.68;;;14.10;99.90;;;;;;5088593;28;20205;-77
2021/10/07 02:41:03;;;;;;;25.95;15.00;;;14.00;99.90;;;;;;5087396;28;20200;-77
2021/10/07 02:43:30;;;;;;;21.55;14.75;;;14.00;99.90;;;;;;5085627;28;20197;-77
2021/10/07 02:45:58;;;;;;;23.73;14.65;;;13.90;99.90;;;;;;5091738;28;20533;-77
2021/10/07 02:48:25;;;;;;;29.75;17.17;;;13.90;99.90;;;;;;5090019;28;20250;-77
2021/10/07 02:50:52;;;;;;;32.40;16.00;;;13.90;99.90;;;;;;5089265;28;20209;-76
2021/10/07 02:53:21;;;;;;;28.35;16.02;;;13.90;99.90;;;;;;5089532;28;20201;-76
2021/10/07 02:55:48;;;;;;;29.88;16.80;;;13.90;99.90;;;;;;5095517;28;20203;-76
2021/10/07 02:58:15;;;;;;;24.90;16.13;;;13.90;99.90;;;;;;5094675;28;20205;-76
2021/10/07 03:00:42;;;;;;;24.58;14.20;;;13.90;99.90;;;;;;5088838;28;20201;-76
2021/10/07 03:03:10;;;;;;;24.73;14.13;;;13.80;99.90;;;;;;5093771;28;20236;-77
2021/10/07 03:05:38;;;;;;;21.95;13.82;;;13.80;99.90;;;;;;5089453;28;20361;-77
2021/10/07 03:08:05;;;;;;;20.15;13.60;;;13.80;99.90;;;;;;5094497;28;20227;-77
2021/10/07 03:10:32;;;;;;;27.25;14.48;;;13.70;99.90;;;;;;5090782;28;20204;-77
2021/10/07 03:12:59;;;;;;;26.20;15.05;;;13.70;99.90;;;;;;5098598;28;20196;-77
2021/10/07 03:15:26;;;;;;;22.98;14.50;;;13.60;99.90;;;;;;5089233;28;20664;-77
2021/10/07 03:17:53;;;;;;;24.98;15.30;;;13.60;99.90;;;;;;5094997;28;20205;-77
2021/10/07 03:20:22;;;;;;;20.73;12.63;;;13.60;99.90;;;;;;5088855;28;20215;-76
2021/10/07 03:22:49;;;;;;;25.95;14.32;;;13.60;99.90;;;;;;5089281;28;20205;-76
2021/10/07 03:25:16;;;;;;;25.00;14.23;;;13.60;99.90;;;;;;5088211;28;20234;-76
2021/10/07 03:27:44;;;;;;;23.92;14.68;;;13.60;99.90;;;;;;5089930;28;20206;-76
2021/10/07 03:30:11;;;;;;;24.50;14.50;;;13.50;99.90;;;;;;5102394;28;20633;-76
2021/10/07 03:32:38;;;;;;;25.83;14.80;;;13.40;99.90;;;;;;5098691;28;20237;-76
2021/10/07 03:35:06;;;;;;;23.30;12.95;;;13.50;99.90;;;;;;5092417;28;20494;-76
2021/10/07 03:37:37;;;;;;;23.00;15.00;;;13.50;99.90;;;;;;5088232;28;20204;-76
2021/10/07 03:40:05;;;;;;;26.85;14.90;;;13.40;99.90;;;;;;5088621;28;20208;-76
2021/10/07 03:42:32;;;;;;;24.48;14.60;;;13.40;99.90;;;;;;5088474;28;20223;-76
2021/10/07 03:45:01;;;;;;;28.58;16.98;;;13.30;99.90;;;;;;5088641;28;20209;-76
2021/10/07 03:47:28;;;;;;;26.77;13.90;;;13.20;99.90;;;;;;5088411;28;20201;-76
2021/10/07 03:49:56;;;;;;;25.63;14.82;;;13.20;99.90;;;;;;5094540;28;20239;-76
2021/10/07 03:52:23;;;;;;;22.92;14.00;;;13.20;99.90;;;;;;5094350;28;20203;-76
2021/10/07 03:54:52;;;;;;;22.58;14.05;;;13.20;99.90;;;;;;5088396;28;20221;-76
2021/10/07 03:57:19;;;;;;;38.45;15.13;;;13.20;99.90;;;;;;5087867;28;20203;-76
2021/10/07 03:59:46;;;;;;;21.73;14.48;;;13.20;99.90;;;;;;5088710;28;20206;-76
2021/10/07 04:02:13;;;;;;;26.35;15.10;;;13.20;99.90;;;;;;5087480;28;20201;-76
2021/10/07 04:04:40;;;;;;;24.77;14.93;;;13.10;99.90;;;;;;5088097;28;20229;-76
2021/10/07 04:07:08;;;;;;;25.98;16.35;;;13.20;99.90;;;;;;5089018;28;20216;-76
2021/10/07 04:09:35;;;;;;;21.45;14.13;;;13.20;99.90;;;;;;5087697;28;20808;-76
2021/10/07 04:12:03;;;;;;;28.90;15.02;;;13.20;99.90;;;;;;5087635;28;20200;-76
2021/10/07 04:14:30;;;;;;;32.30;15.63;;;13.20;99.90;;;;;;5087708;28;20200;-76
2021/10/07 04:16:57;;;;;;;27.05;16.45;;;13.30;99.90;;;;;;5087388;28;20220;-76
2021/10/07 04:19:24;;;;;;;27.65;16.20;;;13.30;99.90;;;;;;5087529;28;20684;-76
2021/10/07 04:21:51;;;;;;;30.88;14.55;;;13.30;99.90;;;;;;5093297;28;20205;-76
2021/10/07 04:24:19;;;;;;;23.48;14.95;;;13.30;99.90;;;;;;5088571;28;20205;-77
2021/10/07 04:26:46;;;;;;;24.30;14.55;;;13.30;99.90;;;;;;5087976;28;20204;-76
2021/10/07 04:29:14;;;;;;;28.77;15.77;;;13.30;99.90;;;;;;5087504;28;20234;-77
2021/10/07 04:31:41;;;;;;;23.63;13.70;;;13.40;99.90;;;;;;5087603;28;20216;-76
2021/10/07 04:34:08;;;;;;;26.55;14.82;;;13.40;99.90;;;;;;5092982;28;20256;-77
2021/10/07 04:36:35;;;;;;;29.35;15.02;;;13.40;99.90;;;;;;5087369;28;20223;-76
2021/10/07 04:39:04;;;;;;;27.67;14.02;;;13.30;99.90;;;;;;5092247;28;20265;-76
2021/10/07 04:41:31;;;;;;;28.40;14.48;;;13.30;99.90;;;;;;5091245;28;20200;-77
2021/10/07 04:43:58;;;;;;;26.00;14.32;;;13.30;99.90;;;;;;5094554;28;20228;-76
2021/10/07 04:46:27;;;;;;;22.55;13.98;;;13.30;99.90;;;;;;5087423;28;20209;-76
2021/10/07 04:48:55;;;;;;;25.42;13.85;;;13.30;99.90;;;;;;5099917;28;20281;-76
2021/10/07 04:51:22;;;;;;;23.15;13.38;;;13.20;99.90;;;;;;5086781;28;20205;-77
2021/10/07 04:53:50;;;;;;;26.55;13.63;;;13.20;99.90;;;;;;5091636;28;20274;-76
2021/10/07 04:56:17;;;;;;;21.95;12.98;;;13.20;99.90;;;;;;5087211;28;20204;-76
2021/10/07 04:58:44;;;;;;;22.85;12.27;;;13.10;99.90;;;;;;5093022;28;20210;-76
2021/10/07 05:01:12;;;;;;;21.05;13.63;;;13.00;99.90;;;;;;5086201;28;20203;-76
2021/10/07 05:03:40;;;;;;;22.98;14.00;;;13.00;99.90;;;;;;5090160;28;20298;-76
2021/10/07 05:06:07;;;;;;;31.60;14.23;;;12.90;99.90;;;;;;5087299;28;20201;-76
2021/10/07 05:08:34;;;;;;;26.10;14.23;;;12.90;99.90;;;;;;5086053;28;20225;-76
2021/10/07 05:11:01;;;;;;;24.88;14.27;;;12.90;99.90;;;;;;5086675;28;20212;-76
2021/10/07 05:13:28;;;;;;;22.08;13.65;;;12.90;99.90;;;;;;5093468;28;20201;-76
2021/10/07 05:15:55;;;;;;;21.48;12.60;;;12.90;99.90;;;;;;5088593;28;20207;-76
2021/10/07 05:18:22;;;;;;;29.65;14.27;;;12.80;99.90;;;;;;5088016;28;20203;-76
2021/10/07 05:20:51;;;;;;;27.42;16.10;;;12.80;99.90;;;;;;5087167;28;20216;-76
2021/10/07 05:23:18;;;;;;;20.90;15.60;;;12.80;99.90;;;;;;5086191;28;20239;-77
2021/10/07 05:25:47;;;;;;;21.75;15.25;;;12.80;99.90;;;;;;5090942;28;20209;-76
2021/10/07 05:28:14;;;;;;;27.52;19.13;;;12.90;99.90;;;;;;5086511;28;20197;-77
2021/10/07 05:30:41;;;;;;;27.63;20.58;;;12.90;99.90;;;;;;5087273;28;20239;-77
2021/10/07 05:33:08;;;;;;;26.33;19.88;;;12.80;99.90;;;;;;5088246;28;20201;-77
2021/10/07 05:35:35;;;;;;;33.58;25.35;;;12.80;99.90;;;;;;5090017;28;20262;-77
2021/10/07 05:38:04;;;;;;;27.17;24.35;;;12.80;99.90;;;;;;5085922;28;20204;-77
2021/10/07 05:40:31;;;;;;;29.45;24.42;;;12.70;99.90;;;;;;5091043;28;20237;-76
2021/10/07 05:42:58;;;;;;;30.15;26.70;;;12.70;99.90;;;;;;5089980;28;20202;-76
2021/10/07 05:45:25;;;;;;;28.45;23.13;;;12.70;99.90;;;;;;5086335;28;20227;-76
2021/10/07 05:47:52;;;;;;;30.23;27.23;;;12.60;99.90;;;;;;5086850;28;20458;-77
2021/10/07 05:50:19;;;;;;;32.85;24.75;;;12.60;99.90;;;;;;5086128;28;20996;-76
2021/10/07 05:52:46;;;;;;;25.15;18.63;;;12.60;99.90;;;;;;5086295;28;20718;-76
2021/10/07 05:55:15;;;;;;;30.20;24.20;;;12.50;99.90;;;;;;5086096;28;20205;-76
2021/10/07 05:57:42;;;;;;;29.33;21.77;;;12.60;99.90;;;;;;5090069;28;20201;-77
2021/10/07 06:00:10;;;;;;;203.00;190.23;;;12.60;99.90;;;;;;5090841;28;20201;-76
2021/10/07 06:02:37;;;;;;;215.40;201.52;;;12.60;99.90;;;;;;5095175;28;20670;-76
2021/10/07 06:05:05;;;;;;;51.00;46.58;;;12.60;99.90;;;;;;5086136;28;20216;-76
2021/10/07 06:07:32;;;;;;;30.05;24.75;;;12.60;99.90;;;;;;5086522;28;20204;-76
2021/10/07 06:09:59;;;;;;;66.47;61.47;;;12.60;99.90;;;;;;5086007;28;20227;-76
2021/10/07 06:12:28;;;;;;;30.88;22.13;;;12.70;99.90;;;;;;5086892;28;20196;-76
2021/10/07 06:14:55;;;;;;;28.25;19.55;;;12.70;99.90;;;;;;5093724;28;20201;-77
2021/10/07 06:17:22;;;;;;;277.88;259.15;;;12.60;99.90;;;;;;5085884;28;20279;-76
2021/10/07 06:19:54;;;;;;;307.55;287.20;;;12.70;99.90;;;;;;5091665;28;20200;-76
2021/10/07 06:22:21;;;;;;;99.28;91.40;;;12.80;99.90;;;;;;5093644;28;20204;-76
2021/10/07 06:24:48;;;;;;;31.45;19.25;;;12.80;99.90;;;;;;5090552;28;20550;-76
2021/10/07 06:27:15;;;;;;;35.60;30.05;;;12.90;99.90;;;;;;5090515;28;20223;-76
2021/10/07 06:29:43;;;;;;;38.28;24.90;;;12.90;99.90;;;;;;5089412;28;20333;-76
2021/10/07 06:32:10;;;;;;;45.60;22.33;;;13.00;99.90;;;;;;5089902;28;20197;-76
2021/10/07 06:34:37;;;;;;;43.58;21.50;;;13.00;99.90;;;;;;5093473;28;20234;-76
2021/10/07 06:37:04;;;;;;;50.83;23.02;;;13.10;99.90;;;;;;5089846;28;20204;-76
2021/10/07 06:39:31;;;;;;;42.00;20.92;;;13.10;99.90;;;;;;5089878;28;20235;-76
2021/10/07 06:41:58;;;;;;;47.45;24.33;;;13.10;99.90;;;;;;5090115;28;20594;-76
2021/10/07 06:44:25;;;;;;;66.10;30.75;;;13.20;99.90;;;;;;5089774;28;20202;-76
2021/10/07 06:46:53;;;;;;;89.55;30.27;;;13.30;99.90;;;;;;5090158;28;20239;-76
2021/10/07 06:49:21;;;;;;;78.88;32.60;;;13.20;99.90;;;;;;5105455;28;20219;-74
2021/10/07 06:51:48;;;;;;;77.03;33.22;;;13.20;99.90;;;;;;5090735;28;20284;-74
2021/10/07 06:54:15;;;;;;;76.32;35.30;;;13.30;99.90;;;;;;5089552;28;20231;-74
2021/10/07 06:56:42;;;;;;;77.80;33.58;;;13.40;99.90;;;;;;5089904;28;20208;-74
2021/10/07 06:59:11;;;;;;;85.47;30.83;;;13.50;99.90;;;;;;5095876;28;20257;-75
2021/10/07 07:01:38;;;;;;;68.68;34.78;;;13.50;99.90;;;;;;5089733;28;20205;-76
2021/10/07 07:04:13;;;;;;;72.95;37.22;;;13.50;99.90;;;;;;5090717;28;20283;-76
2021/10/07 07:06:42;;;;;;;74.10;32.20;;;13.60;99.90;;;;;;5089649;28;20267;-76
2021/10/07 07:09:09;;;;;;;80.43;31.15;;;13.60;99.90;;;;;;5099012;28;20224;-76
2021/10/07 07:11:36;;;;;;;70.05;31.30;;;13.50;99.90;;;;;;5089822;28;20196;-76
2021/10/07 07:14:05;;;;;;;66.80;32.33;;;13.50;99.90;;;;;;5089155;28;20201;-76
2021/10/07 07:16:32;;;;;;;72.07;32.72;;;13.50;99.90;;;;;;5089405;28;20222;-76
2021/10/07 07:18:59;;;;;;;82.90;35.40;;;13.50;99.90;;;;;;5089245;28;20206;-76
2021/10/07 07:21:30;;;;;;;87.90;35.45;;;13.40;99.90;;;;;;5089190;28;20196;-76
2021/10/07 07:23:58;;;;;;;83.05;32.83;;;13.30;99.90;;;;;;5088943;28;20201;-76
2021/10/07 07:26:26;;;;;;;82.30;33.85;;;13.20;99.90;;;;;;5090041;28;20231;-76
2021/10/07 07:28:53;;;;;;;76.18;32.88;;;13.10;99.90;;;;;;5089946;28;20253;-76
2021/10/07 07:31:22;;;;;;;77.50;36.97;;;13.10;99.90;;;;;;5092257;28;20228;-76
2021/10/07 07:33:49;;;;;;;74.50;38.53;;;13.10;99.90;;;;;;5088944;28;20198;-76
2021/10/07 07:36:16;;;;;;;73.80;34.33;;;13.00;99.90;;;;;;5088653;28;20693;-76
2021/10/07 07:38:45;;;;;;;73.22;32.58;;;13.00;99.90;;;;;;5088980;28;20234;-77
2021/10/07 07:41:13;;;;;;;70.97;30.52;;;12.90;99.90;;;;;;5088536;28;20227;-74
2021/10/07 07:43:41;;;;;;;76.05;34.00;;;13.00;99.90;;;;;;5088747;28;20549;-74
2021/10/07 07:46:08;;;;;;;81.68;35.75;;;13.10;99.90;;;;;;5093776;28;20239;-74
2021/10/07 07:48:36;;;;;;;68.75;33.45;;;13.10;99.90;;;;;;5094449;28;20201;-74
2021/10/07 07:51:04;;;;;;;75.95;34.83;;;13.20;99.90;;;;;;5098260;28;20232;-74
2021/10/07 07:53:31;;;;;;;80.78;34.80;;;13.30;99.90;;;;;;5093800;28;20208;-74
2021/10/07 07:56:00;;;;;;;67.32;30.95;;;13.40;99.90;;;;;;5088373;28;20234;-74
2021/10/07 07:58:27;;;;;;;68.45;30.50;;;13.50;99.90;;;;;;5088635;28;20221;-74
2021/10/07 08:00:54;;;;;;;74.43;30.50;;;13.70;99.90;;;;;;5088296;28;20236;-74
2021/10/07 08:03:24;;;;;;;78.38;33.67;;;13.80;99.90;;;;;;5088023;28;20243;-74
2021/10/07 08:05:51;;;;;;;81.15;31.90;;;13.90;99.90;;;;;;5088755;28;20201;-74
2021/10/07 08:08:18;;;;;;;79.75;36.33;;;14.00;99.90;;;;;;5093900;28;20204;-74
2021/10/07 08:10:45;;;;;;;66.15;30.15;;;14.00;99.90;;;;;;5091859;28;20228;-74
2021/10/07 08:13:15;;;;;;;59.70;31.27;;;14.10;99.90;;;;;;5091453;28;20239;-74
2021/10/07 08:15:42;;;;;;;70.25;29.80;;;14.00;99.90;;;;;;5088348;28;20234;-74
2021/10/07 08:18:11;;;;;;;65.65;31.38;;;13.90;99.90;;;;;;5088549;28;20200;-74
2021/10/07 08:20:39;;;;;;;66.55;32.28;;;13.80;99.90;;;;;;5092366;28;20201;-77
2021/10/07 08:23:07;;;;;;;59.13;27.80;;;13.80;99.90;;;;;;5087725;28;20283;-76
2021/10/07 08:25:34;;;;;;;60.88;27.27;;;13.80;99.90;;;;;;5095744;28;20205;-76
2021/10/07 08:28:01;;;;;;;56.25;32.42;;;13.80;99.90;;;;;;5087895;28;20237;-77
2021/10/07 08:30:32;;;;;;;63.30;29.77;;;13.80;99.90;;;;;;5088038;28;20244;-77
2021/10/07 08:33:00;;;;;;;61.95;33.83;;;13.80;99.90;;;;;;5087854;28;20208;-77
2021/10/07 08:35:27;;;;;;;52.30;28.83;;;13.90;99.90;;;;;;5087515;28;20200;-74
2021/10/07 08:37:56;;;;;;;54.08;27.30;;;14.10;99.90;;;;;;5087781;28;20205;-74
2021/10/07 08:40:23;;;;;;;61.35;31.10;;;14.20;99.90;;;;;;5095523;28;20209;-74
2021/10/07 08:42:51;;;;;;;54.28;29.45;;;14.30;99.90;;;;;;5089566;28;20223;-74
2021/10/07 08:45:18;;;;;;;40.97;25.73;;;14.30;99.90;;;;;;5086793;28;20625;-74
2021/10/07 08:47:50;;;;;;;47.42;26.10;;;14.20;99.90;;;;;;5086906;28;20208;-74
2021/10/07 08:50:19;;;;;;;35.45;18.33;;;14.10;99.90;;;;;;5092440;28;20220;-77
2021/10/07 08:52:47;;;;;;;42.45;24.63;;;14.20;99.90;;;;;;5097173;28;20266;-74
2021/10/07 08:55:14;;;;;;;38.20;21.42;;;14.30;99.90;;;;;;5090517;28;20724;-74
2021/10/07 08:57:41;;;;;;;35.83;21.42;;;14.40;99.90;;;;;;5092874;28;20204;-74
2021/10/07 09:00:12;;;;;;;37.55;23.52;;;14.40;99.90;;;;;;5086849;28;20659;-74
2021/10/07 09:02:41;;;;;;;37.90;23.30;;;14.60;99.90;;;;;;5086392;28;20836;-74
2021/10/07 09:05:13;;;;;;;39.13;21.60;;;14.70;99.90;;;;;;5087400;28;20208;-74
2021/10/07 09:08:00;;;;;;;33.38;21.17;;;14.80;99.90;;;;;;5093327;28;20217;-74
2021/10/07 09:10:43;;;;;;;29.95;17.65;;;15.00;99.90;;;;;;5086103;28;20278;-74
2021/10/07 09:13:12;;;;;;;28.60;17.52;;;15.20;99.90;;;;;;5086726;28;20551;-74
2021/10/07 09:15:44;;;;;;;26.92;17.55;;;15.60;99.90;;;;;;5091508;28;20254;-74
2021/10/07 09:18:11;;;;;;;23.85;13.73;;;15.70;99.90;;;;;;5091808;28;20202;-74
2021/10/07 09:20:43;;;;;;;31.58;28.25;;;15.80;99.90;;;;;;5092125;28;20209;-74
2021/10/07 09:23:12;;;;;;;32.95;25.08;;;15.80;99.90;;;;;;5086434;28;20264;-74
2021/10/07 09:26:00;;;;;;;53.47;49.53;;;16.00;99.90;;;;;;5086322;28;20213;-74
2021/10/07 09:28:31;;;;;;;35.13;32.13;;;16.20;99.90;;;;;;5093141;28;20199;-74
2021/10/07 09:31:00;;;;;;;24.65;21.92;;;16.60;99.90;;;;;;5086373;28;20229;-74
2021/10/07 09:33:29;;;;;;;18.90;16.92;;;17.20;99.90;;;;;;5087117;28;20198;-74
2021/10/07 09:36:18;;;;;;;18.80;13.50;;;17.60;99.90;;;;;;5086754;28;20195;-74
2021/10/07 09:38:47;;;;;;;16.48;11.20;;;17.80;99.90;;;;;;5087034;28;20202;-74
2021/10/07 09:41:18;;;;;;;18.23;13.18;;;17.70;99.90;;;;;;5090734;28;20258;-74
2021/10/07 09:43:48;;;;;;;18.95;13.10;;;17.60;99.90;;;;;;5094498;28;20293;-74
2021/10/07 09:46:39;;;;;;;17.83;12.38;;;17.70;99.90;;;;;;5085959;28;20203;-74
2021/10/07 09:49:06;;;;;;;12.40;9.27;;;17.70;99.90;;;;;;5092813;28;20200;-74
2021/10/07 09:51:40;;;;;;;10.88;9.32;;;17.60;99.90;;;;;;5087413;28;20223;-75
2021/10/07 09:54:08;;;;;;;13.93;9.45;;;17.50;99.90;;;;;;5086200;28;20632;-75
2021/10/07 09:56:35;;;;;;;11.98;8.48;;;17.50;99.90;;;;;;5096604;28;20506;-75
2021/10/07 09:59:08;;;;;;;15.77;9.70;;;17.50;99.90;;;;;;5088131;28;20216;-75
2021/10/07 10:05:12;;;;;;;10.02;9.02;;;17.60;99.90;;;;;;5104342;27;20568;-76
2021/10/07 10:07:39;;;;;;;10.60;8.60;;;17.40;99.90;;;;;;5096946;28;20195;-76
2021/10/07 10:18:17;;;;;;;9.82;8.32;;;17.10;99.90;;;;;;5091405;28;20204;-76
2021/10/07 10:20:51;;;;;;;8.07;7.28;;;17.10;99.90;;;;;;5088073;28;20202;-76
2021/10/07 10:23:21;;;;;;;8.23;7.20;;;17.10;99.90;;;;;;5094694;28;20226;-76
2021/10/07 10:25:56;;;;;;;10.77;8.20;;;17.20;99.90;;;;;;5093130;28;20202;-76
2021/10/07 10:28:49;;;;;;;10.00;9.13;;;17.20;99.90;;;;;;5096060;28;20201;-76
2021/10/07 10:31:20;;;;;;;7.75;7.05;;;17.40;99.90;;;;;;5096016;28;20197;-76
2021/10/07 10:33:49;;;;;;;13.13;7.15;;;17.40;99.90;;;;;;5099755;28;20230;-76
2021/10/07 10:36:34;;;;;;;7.20;6.45;;;17.30;99.90;;;;;;5087448;28;20606;-76
2021/10/07 10:39:04;;;;;;;9.38;6.22;;;17.10;99.90;;;;;;5096200;28;20209;-76
2021/10/07 10:41:51;;;;;;;7.97;7.10;;;17.00;99.90;;;;;;5086250;28;20226;-76
2021/10/07 10:44:42;;;;;;;7.40;6.57;;;17.00;99.90;;;;;;5087840;28;20613;-76
2021/10/07 10:47:25;;;;;;;7.00;6.10;;;17.00;99.90;;;;;;5087603;28;20205;-76
2021/10/07 10:50:06;;;;;;;9.95;6.55;;;16.90;99.90;;;;;;5090107;28;20252;-76
2021/10/07 10:52:37;;;;;;;6.97;5.80;;;16.90;99.90;;;;;;5089697;28;20210;-76
2021/10/07 10:55:07;;;;;;;8.68;6.65;;;16.90;99.90;;;;;;5088322;28;20225;-76
2021/10/07 10:57:36;;;;;;;10.52;9.73;;;17.00;99.90;;;;;;5086617;28;20549;-76
2021/10/07 11:00:09;;;;;;;9.73;8.90;;;17.00;99.90;;;;;;5100016;28;20215;-76
2021/10/07 11:02:37;;;;;;;6.55;5.47;;;17.10;99.90;;;;;;5092142;28;20193;-76
2021/10/07 11:05:16;;;;;;;8.55;5.65;;;17.10;99.90;;;;;;5082659;28;20229;-76
2021/10/07 11:07:45;;;;;;;6.32;5.32;;;17.10;99.90;;;;;;5091844;28;20201;-76
2021/10/07 11:10:17;;;;;;;5.70;5.07;;;17.00;99.90;;;;;;5083525;28;20550;-76
2021/10/07 11:12:50;;;;;;;6.38;5.85;;;16.80;99.90;;;;;;5089374;28;20225;-76
2021/10/07 11:15:19;;;;;;;14.38;13.38;;;16.80;99.90;;;;;;5080904;28;20202;-76
2021/10/07 11:17:47;;;;;;;32.47;30.40;;;16.80;99.90;;;;;;5072863;28;20212;-76
2021/10/07 11:20:17;;;;;;;40.88;38.10;;;16.90;99.90;;;;;;5080693;28;20201;-76
2021/10/07 11:23:16;;;;;;;6.32;5.13;;;17.00;99.90;;;;;;5081223;28;20211;-77
2021/10/07 11:25:47;;;;;;;8.63;5.60;;;17.10;99.90;;;;;;5063004;28;20665;-76
2021/10/07 11:28:15;;;;;;;12.52;5.88;;;17.20;99.90;;;;;;5060465;28;20203;-76
2021/10/07 11:30:44;;;;;;;9.15;8.25;;;17.10;99.90;;;;;;5054180;28;20250;-76
2021/10/07 11:33:11;;;;;;;10.88;9.90;;;17.10;99.90;;;;;;5051309;28;20203;-76
2021/10/07 11:35:39;;;;;;;8.35;6.57;;;17.00;99.90;;;;;;5058274;28;20261;-76
2021/10/07 11:38:09;;;;;;;8.57;7.70;;;17.00;99.90;;;;;;5055880;28;20209;-76
2021/10/07 11:40:45;;;;;;;8.20;7.38;;;17.10;99.90;;;;;;5061117;28;20216;-76
2021/10/07 11:43:14;;;;;;;8.65;7.32;;;17.20;99.90;;;;;;5054339;28;20236;-76
2021/10/07 11:45:43;;;;;;;7.70;6.40;;;17.40;99.90;;;;;;5058096;28;20270;-76
2021/10/07 11:48:10;;;;;;;7.95;6.70;;;17.50;99.90;;;;;;5050872;28;20198;-76
2021/10/07 11:51:20;;;;;;;8.07;6.63;;;17.60;99.90;;;;;;5047534;28;20202;-76
2021/10/07 11:53:50;;;;;;;7.85;6.57;;;17.60;99.90;;;;;;5042001;28;20233;-76
2021/10/07 11:56:20;;;;;;;8.07;7.28;;;17.50;99.90;;;;;;5063067;28;20206;-76
2021/10/07 11:58:51;;;;;;;6.97;6.25;;;17.30;99.90;;;;;;5054938;28;20361;-76
2021/10/07 12:01:19;;;;;;;7.32;6.50;;;17.10;99.90;;;;;;5075314;28;20207;-76
2021/10/07 12:03:46;;;;;;;9.98;5.60;;;17.00;99.90;;;;;;5072804;28;20729;-75
2021/10/07 12:06:14;;;;;;;8.52;7.65;;;17.00;99.90;;;;;;5076659;28;20240;-76
2021/10/07 12:08:43;;;;;;;6.85;6.15;;;16.90;99.90;;;;;;5075184;28;20212;-76
2021/10/07 12:11:12;;;;;;;7.50;6.80;;;17.00;99.90;;;;;;5074499;28;20210;-76
2021/10/07 12:13:43;;;;;;;9.32;7.07;;;17.00;99.90;;;;;;5078690;28;20200;-76
2021/10/07 12:16:16;;;;;;;5.25;4.63;;;16.90;99.90;;;;;;5072160;28;20204;-76
2021/10/07 12:18:46;;;;;;;9.75;8.35;;;16.80;99.90;;;;;;5079763;28;20215;-76
2021/10/07 12:21:14;;;;;;;12.88;7.97;;;16.80;99.90;;;;;;5079435;28;20203;-76
2021/10/07 12:23:53;;;;;;;8.50;7.20;;;16.80;99.90;;;;;;5070935;28;20232;-76
2021/10/07 12:26:26;;;;;;;6.78;6.07;;;16.90;99.90;;;;;;5079526;28;20206;-76
2021/10/07 12:28:56;;;;;;;6.40;5.80;;;16.90;99.90;;;;;;5079539;28;20332;-76
2021/10/07 12:31:24;;;;;;;10.77;8.38;;;16.90;99.90;;;;;;5084769;28;20260;-75
2021/10/07 12:33:55;;;;;;;9.10;7.95;;;17.00;99.90;;;;;;5074841;28;20217;-76
2021/10/07 12:36:23;;;;;;;8.50;7.63;;;17.00;99.90;;;;;;5084345;28;20225;-75
2021/10/07 12:38:53;;;;;;;10.02;8.80;;;17.00;99.90;;;;;;5067667;28;20207;-76
2021/10/07 12:41:32;;;;;;;11.00;7.72;;;17.20;99.90;;;;;;5078904;28;20207;-75
2021/10/07 12:44:01;;;;;;;9.43;7.38;;;17.20;99.90;;;;;;5070747;28;20220;-76
2021/10/07 12:46:29;;;;;;;9.07;8.15;;;17.20;99.90;;;;;;5080209;28;20200;-76
2021/10/07 12:48:58;;;;;;;11.43;8.85;;;17.30;99.90;;;;;;5070901;28;20208;-76
2021/10/07 12:51:29;;;;;;;9.07;7.00;;;17.50;99.90;;;;;;5075447;28;20717;-76
2021/10/07 12:53:56;;;;;;;14.23;7.10;;;17.60;99.90;;;;;;5082445;28;20218;-76